createdAt,value
2019-06-07T00:03:09.248Z,7.75
2019-06-07T00:08:07.605Z,7.45
2019-06-07T00:12:54.250Z,9.00
2019-06-07T00:17:46.882Z,8.30
2019-06-07T00:22:39.536Z,7.45
2019-06-07T00:27:32.166Z,7.95
2019-06-07T00:32:24.585Z,7.58
2019-06-07T00:37:22.585Z,7.92
2019-06-07T00:42:16.655Z,7.37
2019-06-07T00:47:06.114Z,7.12
2019-06-07T00:51:58.558Z,8.03
2019-06-07T00:56:51.305Z,7.62
2019-06-07T01:01:44.123Z,7.40
2019-06-07T01:06:36.488Z,7.40
2019-06-07T01:11:28.841Z,7.55
2019-06-07T01:16:23.427Z,7.28
2019-06-07T01:21:19.791Z,8.30
2019-06-07T01:26:10.935Z,8.10
2019-06-07T01:31:03.107Z,7.83
2019-06-07T01:35:55.782Z,7.53
2019-06-07T01:40:48.441Z,7.87
2019-06-07T01:45:41.448Z,6.80
2019-06-07T01:50:34.040Z,7.58
2019-06-07T01:55:29.172Z,7.60
2019-06-07T02:00:22.119Z,7.70
2019-06-07T02:05:14.851Z,7.92
2019-06-07T02:10:08.595Z,7.80
2019-06-07T02:15:00.799Z,8.23
2019-06-07T02:19:53.917Z,8.00
2019-06-07T02:24:46.338Z,7.37
2019-06-07T02:29:40.280Z,7.78
2019-06-07T02:34:38.778Z,7.20
2019-06-07T02:39:28.813Z,8.20
2019-06-07T02:44:23.138Z,8.40
2019-06-07T02:49:14.737Z,7.50
2019-06-07T02:54:07.392Z,8.60
2019-06-07T02:59:00.098Z,7.72
2019-06-07T03:03:52.704Z,8.50
2019-06-07T03:08:48.588Z,7.28
2019-06-07T03:13:44.010Z,7.60
2019-06-07T03:23:57.045Z,8.57
2019-06-07T03:28:49.529Z,7.57
2019-06-07T03:33:45.331Z,8.67
2019-06-07T03:38:37.610Z,7.75
2019-06-07T03:43:32.677Z,8.63
2019-06-07T03:48:24.151Z,8.30
2019-06-07T03:53:16.557Z,8.25
2019-06-07T04:03:03.218Z,9.00
2019-06-07T04:07:55.536Z,8.83
2019-06-07T04:12:48.344Z,8.80
2019-06-07T04:18:00.447Z,8.90
2019-06-07T04:22:39.742Z,9.58
2019-06-07T04:27:30.632Z,9.75
2019-06-07T04:32:22.999Z,9.80
2019-06-07T04:37:16.639Z,10.63
2019-06-07T04:42:10.691Z,9.23
2019-06-07T04:47:04.567Z,8.77
2019-06-07T04:51:57.838Z,9.93
2019-06-07T04:56:50.252Z,9.73
2019-06-07T05:01:43.048Z,8.90
2019-06-07T05:06:37.366Z,9.63
2019-06-07T05:11:31.622Z,9.85
2019-06-07T05:16:24.042Z,9.40
2019-06-07T05:21:16.187Z,9.13
2019-06-07T05:26:08.425Z,8.65
2019-06-07T05:31:05.315Z,9.30
2019-06-07T05:35:55.287Z,9.75
2019-06-07T05:40:48.924Z,7.87
2019-06-07T05:45:44.916Z,6.85
2019-06-07T05:50:44.928Z,6.47
2019-06-07T05:55:32.646Z,6.90
2019-06-07T06:00:25.354Z,7.00
2019-06-07T06:05:33.268Z,5.28
2019-06-07T06:10:12.692Z,4.78
2019-06-07T06:15:06.871Z,4.83
2019-06-07T06:19:59.430Z,4.58
2019-06-07T06:25:29.847Z,4.17
2019-06-07T06:29:47.046Z,4.00
2019-06-07T06:34:44.252Z,3.65
2019-06-07T06:39:33.915Z,3.87
2019-06-07T06:44:26.421Z,3.55
2019-06-07T06:49:18.972Z,3.33
2019-06-07T06:54:11.618Z,3.80
2019-06-07T07:04:11.370Z,3.58
2019-06-07T07:08:53.556Z,3.10
2019-06-07T07:13:52.934Z,3.20
2019-06-07T07:18:41.677Z,3.00
2019-06-07T07:23:34.574Z,3.02
2019-06-07T07:28:27.370Z,2.90
2019-06-07T07:33:20.583Z,2.85
2019-06-07T07:38:13.576Z,2.70
2019-06-07T07:43:06.424Z,2.80
2019-06-07T07:48:14.779Z,2.70
2019-06-07T07:52:59.863Z,2.62
2019-06-07T07:57:49.446Z,2.45
2019-06-07T08:02:41.306Z,2.40
2019-06-07T08:07:34.005Z,2.60
2019-06-07T08:12:26.552Z,2.25
2019-06-07T08:17:19.062Z,2.50
2019-06-07T08:22:11.870Z,2.08
2019-06-07T08:27:25.290Z,2.37
2019-06-07T08:32:00.950Z,2.25
2019-06-07T08:36:54.846Z,2.30
2019-06-07T08:41:59.402Z,2.05
2019-06-07T08:46:41.439Z,2.10
2019-06-07T08:51:34.225Z,2.00
2019-06-07T08:56:26.667Z,2.15
2019-06-07T09:01:19.453Z,1.90
2019-06-07T09:07:00.996Z,2.05
2019-06-07T09:11:11.237Z,1.80
2019-06-07T09:16:08.111Z,1.60
2019-06-07T09:20:58.214Z,1.85
2019-06-07T09:26:02.603Z,1.77
2019-06-07T09:30:45.622Z,1.77
2019-06-07T09:35:39.076Z,1.70
2019-06-07T09:40:31.595Z,1.70
2019-06-07T09:45:24.285Z,2.00
2019-06-07T09:50:17.581Z,1.70
2019-06-07T09:55:22.906Z,1.77
2019-06-07T10:00:37.057Z,1.90
2019-06-07T10:05:01.672Z,1.60
2019-06-07T10:10:12.621Z,1.85
2019-06-07T10:14:48.121Z,1.72
2019-06-07T10:19:40.850Z,2.00
2019-06-07T10:24:33.786Z,1.80
2019-06-07T10:29:26.678Z,1.60
2019-06-07T10:34:19.286Z,1.70
2019-06-07T10:39:11.871Z,1.57
2019-06-07T10:44:05.524Z,1.80
2019-06-07T10:48:58.137Z,1.50
2019-06-07T10:53:50.894Z,1.65
2019-06-07T10:58:43.102Z,1.70
2019-06-07T11:03:35.635Z,1.50
2019-06-07T11:08:28.269Z,1.60
2019-06-07T11:13:20.686Z,1.70
2019-06-07T11:18:14.419Z,1.40
2019-06-07T11:23:08.247Z,1.50
2019-06-07T11:28:01.016Z,1.65
2019-06-07T11:32:55.438Z,1.67
2019-06-07T11:37:47.842Z,1.67
2019-06-07T11:42:40.658Z,1.60
2019-06-07T11:47:33.389Z,1.60
2019-06-07T11:52:25.901Z,1.90
2019-06-07T11:57:18.376Z,1.80
2019-06-07T12:02:11.578Z,1.40
2019-06-07T12:07:04.428Z,1.90
2019-06-07T12:11:56.978Z,1.90
2019-06-07T12:16:49.404Z,1.90
2019-06-07T12:21:42.338Z,1.47
2019-06-07T12:26:34.608Z,1.80
2019-06-07T12:31:27.248Z,1.60
2019-06-07T12:36:19.985Z,1.57
2019-06-07T12:41:12.451Z,1.80
2019-06-07T12:46:05.114Z,1.70
2019-06-07T12:50:57.533Z,1.80
2019-06-07T12:55:50.517Z,1.65
2019-06-07T13:00:43.334Z,1.90
2019-06-07T13:05:36.004Z,1.95
2019-06-07T13:10:28.698Z,2.05
2019-06-07T13:15:25.709Z,1.98
2019-06-07T13:20:18.219Z,2.12
2019-06-07T13:25:12.586Z,1.87
2019-06-07T13:30:10.380Z,1.82
2019-06-07T13:35:01.083Z,2.55
2019-06-07T13:39:53.709Z,1.77
2019-06-07T13:44:46.447Z,2.10
2019-06-07T13:49:39.005Z,2.40
2019-06-07T13:54:31.399Z,2.10
2019-06-07T13:59:24.528Z,2.10
2019-06-07T14:04:18.802Z,2.02
2019-06-07T14:09:11.670Z,1.92
2019-06-07T14:14:04.528Z,1.77
2019-06-07T14:18:56.930Z,1.80
2019-06-07T14:23:49.936Z,3.02
2019-06-07T14:28:42.666Z,2.33
2019-06-07T14:33:35.090Z,2.10
2019-06-07T14:38:29.455Z,1.55
2019-06-07T14:43:23.076Z,1.40
2019-06-07T14:48:15.105Z,1.30
2019-06-07T14:53:07.546Z,2.30
2019-06-07T14:57:59.962Z,1.20
2019-06-07T15:02:53.124Z,1.30
2019-06-07T15:07:45.738Z,1.45
2019-06-07T15:12:39.914Z,1.20
2019-06-07T15:17:33.454Z,1.12
2019-06-07T15:22:30.216Z,0.95
2019-06-07T15:27:23.079Z,1.10
2019-06-07T15:32:15.617Z,1.00
2019-06-07T15:37:08.043Z,1.10
2019-06-07T15:42:00.751Z,1.20
2019-06-07T15:46:54.549Z,1.20
2019-06-07T15:51:48.056Z,1.00
2019-06-07T15:56:41.208Z,1.10
2019-06-07T16:01:33.684Z,0.93
2019-06-07T16:06:26.441Z,0.98
2019-06-07T16:11:18.774Z,1.07
2019-06-07T16:16:11.412Z,0.90
2019-06-07T16:21:04.777Z,0.80
2019-06-07T16:25:57.443Z,0.90
2019-06-07T16:30:50.042Z,1.02
2019-06-07T16:35:43.200Z,1.02
2019-06-07T16:40:36.381Z,1.35
2019-06-07T16:45:29.312Z,1.07
2019-06-07T16:50:21.754Z,1.25
2019-06-07T16:55:15.579Z,0.90
2019-06-07T17:00:10.365Z,1.00
2019-06-07T17:05:03.162Z,1.15
2019-06-07T17:09:55.790Z,0.82
2019-06-07T17:14:48.731Z,1.00
2019-06-07T17:19:41.305Z,0.95
2019-06-07T17:24:33.685Z,0.93
2019-06-07T17:29:25.803Z,1.00
2019-06-07T17:34:18.663Z,1.02
2019-06-07T17:39:11.049Z,0.80
2019-06-07T17:44:03.670Z,1.00
2019-06-07T17:48:56.222Z,0.90
2019-06-07T17:53:49.964Z,0.93
2019-06-07T17:58:42.765Z,1.15
2019-06-07T18:03:35.383Z,0.80
2019-06-07T18:08:29.570Z,0.95
2019-06-07T18:13:22.012Z,1.22
2019-06-07T18:18:14.656Z,1.00
2019-06-07T18:23:07.203Z,1.07
2019-06-07T18:27:59.892Z,0.93
2019-06-07T18:32:52.981Z,0.80
2019-06-07T18:37:46.817Z,1.15
2019-06-07T18:42:40.003Z,1.07
2019-06-07T18:47:32.521Z,0.90
2019-06-07T18:52:27.013Z,1.52
2019-06-07T18:57:40.147Z,1.10
2019-06-07T19:02:32.429Z,0.95
2019-06-07T19:07:26.205Z,1.30
2019-06-07T19:12:18.372Z,1.47
2019-06-07T19:17:10.932Z,0.90
2019-06-07T19:22:03.318Z,1.10
2019-06-07T19:26:56.725Z,1.30
2019-06-07T19:31:48.954Z,0.90
2019-06-07T19:36:48.744Z,1.20
2019-06-07T19:41:35.459Z,0.90
2019-06-07T19:46:28.170Z,1.30
2019-06-07T19:51:20.772Z,1.10
2019-06-07T19:56:13.341Z,1.10
2019-06-07T20:01:06.048Z,1.30
2019-06-07T20:05:58.381Z,0.98
2019-06-07T20:10:51.232Z,1.15
2019-06-07T20:15:43.782Z,1.27
2019-06-07T20:20:36.691Z,1.02
2019-06-07T20:25:29.273Z,1.10
2019-06-07T20:30:22.426Z,1.00
2019-06-07T20:35:15.051Z,1.22
2019-06-07T20:40:22.860Z,1.10
2019-06-07T20:45:05.925Z,1.12
2019-06-07T20:49:58.220Z,1.10
2019-06-07T20:54:51.103Z,1.00
2019-06-07T20:59:43.634Z,1.00
2019-06-07T21:04:36.099Z,1.10
2019-06-07T21:09:28.834Z,0.90
2019-06-07T21:14:21.415Z,1.00
2019-06-07T21:19:13.582Z,1.02
2019-06-07T21:24:06.786Z,1.17
2019-06-07T21:28:59.183Z,1.20
2019-06-07T21:33:51.588Z,1.10
2019-06-07T21:38:43.897Z,1.17
2019-06-07T21:43:36.160Z,1.00
2019-06-07T21:48:28.672Z,1.30
2019-06-07T21:53:21.495Z,1.10
2019-06-07T21:58:13.960Z,1.10
2019-06-07T22:03:07.344Z,1.10
2019-06-07T22:08:00.123Z,1.10
2019-06-07T22:12:52.543Z,1.35
2019-06-07T22:17:45.448Z,1.40
2019-06-07T22:22:37.963Z,1.00
2019-06-07T22:27:30.535Z,1.00
2019-06-07T22:32:22.843Z,1.20
2019-06-07T22:37:17.330Z,1.30
2019-06-07T22:42:11.867Z,1.15
2019-06-07T22:47:03.443Z,1.00
2019-06-07T22:52:08.181Z,1.27
2019-06-07T22:57:01.033Z,1.00
2019-06-07T23:01:53.889Z,0.90
2019-06-07T23:06:45.869Z,0.88
2019-06-07T23:11:38.587Z,1.15
2019-06-07T23:16:31.336Z,1.20
2019-06-07T23:21:23.903Z,1.00
2019-06-07T23:26:16.298Z,1.07
2019-06-07T23:31:10.255Z,1.20
2019-06-07T23:36:02.884Z,1.10
2019-06-07T23:40:55.407Z,1.10
2019-06-07T23:45:48.328Z,1.00
2019-06-07T23:50:40.653Z,1.37
2019-06-07T23:55:32.582Z,1.10
